LPFL Airport Information

Runway Information
Runway 18 Length 4593 ft width 98 ft
Elevation 98 ft Threshold 262 ft Heading 166
Runway 36 Length 4593 ft Width 98 ft
Elevation 107 ft Threshold 197 ft Heading 346
Airport Frequencies
Type TWR Name TWR Frequency 118.3 MHZ
Airport Navaids
Type NDB Name Flores Frequency 270 KHZ
Type VOR-DME Name Flores Frequency 113300 KHZ
Airport Weather Information & NOTAM
ADDS - METARS form results

(1925 UTC 19 July 2018)
 
METAR text: LPFL 191900Z 02010KT 9999 SCT020 22/16 Q1031
Conditions at: LPFL (FLORES ISLAND , PT) observed 1900 UTC 19 July 2018
Temperature: 22.0°C (72°F)
Dewpoint: 16.0°C (61°F) [RH = 69%]
Pressure (altimeter): 30.44 inches Hg (1031.0 mb)
Winds: from the NNE (20 degrees) at 12 MPH (10 knots; 5.2 m/s)
Visibility: 6 or more miles (10+ km)
Ceiling: at least 12,000 feet AGL
Clouds: scattered clouds at 2000 feet AGL
Weather: no significant weather observed at this time

METAR text: LPFL 191830Z 02009KT 9999 FEW020 23/16 Q1031
Conditions at: LPFL (FLORES ISLAND , PT) observed 1830 UTC 19 July 2018
Temperature: 23.0°C (73°F)
Dewpoint: 16.0°C (61°F) [RH = 65%]
Pressure (altimeter): 30.44 inches Hg (1031.0 mb)
Winds: from the NNE (20 degrees) at 10 MPH (9 knots; 4.7 m/s)
Visibility: 6 or more miles (10+ km)
Ceiling: at least 12,000 feet AGL
Clouds: few clouds at 2000 feet AGL
Weather: no significant weather observed at this time